createdAt,value
2023-05-06T00:00:15.909Z,0
2023-05-06T00:05:15.954Z,0
2023-05-06T00:10:18.962Z,0
2023-05-06T00:15:18.850Z,0
2023-05-06T00:20:15.959Z,0
2023-05-06T00:25:18.928Z,0
2023-05-06T00:30:18.934Z,0
2023-05-06T00:35:18.958Z,0
2023-05-06T00:40:18.905Z,0
2023-05-06T00:45:18.921Z,0
2023-05-06T00:50:15.951Z,0
2023-05-06T00:55:18.890Z,0
2023-05-06T01:00:18.954Z,0
2023-05-06T01:05:18.992Z,0
2023-05-06T01:10:16.001Z,0
2023-05-06T01:15:15.811Z,0
2023-05-06T01:20:18.950Z,0
2023-05-06T01:25:18.887Z,0
2023-05-06T01:30:15.951Z,0
2023-05-06T01:35:18.953Z,0
2023-05-06T01:40:18.918Z,0
2023-05-06T01:45:18.905Z,0
2023-05-06T01:50:18.896Z,0
2023-05-06T01:55:16.021Z,0
2023-05-06T02:00:16.010Z,0
2023-05-06T02:05:18.991Z,0
2023-05-06T02:10:19.001Z,0
2023-05-06T02:15:16.007Z,0
2023-05-06T02:20:18.953Z,0
2023-05-06T02:25:18.945Z,0
2023-05-06T02:30:15.974Z,0
2023-05-06T02:35:15.959Z,0
2023-05-06T02:40:19.078Z,0
2023-05-06T02:45:18.943Z,0
2023-05-06T02:50:19.047Z,0
2023-05-06T02:55:16.000Z,0
2023-05-06T03:00:16.044Z,0
2023-05-06T03:05:18.956Z,0
2023-05-06T03:10:18.988Z,0
2023-05-06T03:15:18.973Z,0
2023-05-06T03:20:16.060Z,0
2023-05-06T03:25:19.093Z,0
2023-05-06T03:30:15.824Z,0
2023-05-06T03:35:19.027Z,0
2023-05-06T03:40:16.068Z,0
2023-05-06T03:45:18.965Z,0
2023-05-06T03:50:18.984Z,0
2023-05-06T03:55:18.981Z,0
2023-05-06T04:00:20.252Z,0
2023-05-06T04:05:20.208Z,0
2023-05-06T04:10:17.063Z,0
2023-05-06T04:15:20.241Z,0
2023-05-06T04:20:20.339Z,0
2023-05-06T04:25:20.270Z,0
2023-05-06T04:30:20.361Z,0
2023-05-06T04:35:17.379Z,0
2023-05-06T04:40:17.356Z,0
2023-05-06T04:45:20.331Z,0
2023-05-06T04:50:20.297Z,0
2023-05-06T04:55:20.293Z,0
2023-05-06T05:00:17.364Z,0
2023-05-06T05:05:20.290Z,0
2023-05-06T05:10:20.329Z,0
2023-05-06T05:15:17.361Z,0
2023-05-06T05:20:17.345Z,0
2023-05-06T05:25:20.298Z,0
2023-05-06T05:30:20.332Z,0
2023-05-06T05:35:17.380Z,0
2023-05-06T05:40:20.318Z,0
2023-05-06T05:45:20.293Z,0
2023-05-06T05:50:20.307Z,0
2023-05-06T05:55:17.368Z,0
2023-05-06T06:00:20.304Z,0
2023-05-06T06:05:20.293Z,0
2023-05-06T06:10:17.292Z,0
2023-05-06T06:15:20.410Z,0
2023-05-06T06:20:20.331Z,0
2023-05-06T06:25:20.336Z,0
2023-05-06T06:30:17.461Z,0
2023-05-06T06:35:17.420Z,0
2023-05-06T06:40:20.347Z,0
2023-05-06T06:45:20.322Z,0
2023-05-06T06:50:17.342Z,0
2023-05-06T06:55:20.643Z,0
2023-05-06T07:00:20.377Z,0
2023-05-06T07:05:17.393Z,0
2023-05-06T07:10:20.453Z,0
2023-05-06T07:15:18.346Z,0
2023-05-06T07:20:18.336Z,0
2023-05-06T07:25:18.309Z,0
2023-05-06T07:30:22.407Z,0
2023-05-06T07:35:50.228Z,0
2023-05-06T07:40:18.390Z,0
2023-05-06T07:45:15.453Z,0
2023-05-06T07:50:15.381Z,0
2023-05-06T07:55:18.347Z,0
2023-05-06T08:00:18.498Z,0
2023-05-06T08:05:15.455Z,0
2023-05-06T08:10:18.443Z,0
2023-05-06T08:15:18.388Z,0
2023-05-06T08:20:15.396Z,0
2023-05-06T08:25:15.381Z,0
2023-05-06T08:30:18.425Z,0
2023-05-06T08:35:18.392Z,0
2023-05-06T08:40:18.491Z,0
2023-05-06T08:45:15.513Z,0
2023-05-06T08:50:18.458Z,0
2023-05-06T08:55:15.457Z,0
2023-05-06T09:00:15.397Z,0
2023-05-06T09:05:18.404Z,0
2023-05-06T09:10:18.410Z,0
2023-05-06T09:15:15.421Z,0
2023-05-06T09:20:18.466Z,0
2023-05-06T09:25:18.357Z,0
2023-05-06T09:30:15.439Z,0
2023-05-06T09:35:18.549Z,0
2023-05-06T09:40:18.509Z,0
2023-05-06T09:45:15.436Z,4
2023-05-06T09:50:15.483Z,7
2023-05-06T09:55:15.282Z,9
2023-05-06T10:00:18.522Z,11
2023-05-06T10:05:18.801Z,14
2023-05-06T10:10:18.483Z,18
2023-05-06T10:15:18.409Z,21
2023-05-06T10:20:15.445Z,17
2023-05-06T10:25:18.476Z,23
2023-05-06T10:30:15.454Z,32
2023-05-06T10:35:15.479Z,83
2023-05-06T10:40:18.447Z,100
2023-05-06T10:45:15.515Z,128
2023-05-06T10:50:18.434Z,144
2023-05-06T10:55:15.461Z,156
2023-05-06T11:00:18.472Z,171
2023-05-06T11:05:15.613Z,185
2023-05-06T11:10:18.513Z,200
2023-05-06T11:15:15.366Z,214
2023-05-06T11:20:18.505Z,231
2023-05-06T11:25:15.465Z,247
2023-05-06T11:30:18.492Z,261
2023-05-06T11:35:18.442Z,277
2023-05-06T11:40:18.467Z,291
2023-05-06T11:45:18.452Z,305
2023-05-06T11:50:15.338Z,322
2023-05-06T11:55:18.551Z,338
2023-05-06T12:00:18.547Z,353
2023-05-06T12:05:18.468Z,370
2023-05-06T12:10:18.447Z,388
2023-05-06T12:15:18.533Z,402
2023-05-06T12:20:18.527Z,417
2023-05-06T12:25:15.525Z,432
2023-05-06T12:30:15.580Z,448
2023-05-06T12:35:15.600Z,459
2023-05-06T12:40:18.555Z,478
2023-05-06T12:45:18.470Z,492
2023-05-06T12:50:18.465Z,509
2023-05-06T12:55:18.507Z,521
2023-05-06T13:00:18.481Z,535
2023-05-06T13:05:18.520Z,543
2023-05-06T13:10:18.555Z,565
2023-05-06T13:15:15.574Z,579
2023-05-06T13:20:18.655Z,594
2023-05-06T13:25:18.654Z,605
2023-05-06T13:30:18.497Z,612
2023-05-06T13:35:18.526Z,625
2023-05-06T13:40:18.523Z,644
2023-05-06T13:45:18.507Z,659
2023-05-06T13:50:18.544Z,668
2023-05-06T13:55:17.318Z,684
2023-05-06T14:00:15.630Z,692
2023-05-06T14:05:18.678Z,707
2023-05-06T14:10:18.630Z,720
2023-05-06T14:15:18.563Z,728
2023-05-06T14:20:18.661Z,742
2023-05-06T14:25:15.601Z,751
2023-05-06T14:30:18.570Z,762
2023-05-06T14:35:18.608Z,771
2023-05-06T14:40:18.566Z,781
2023-05-06T14:45:18.550Z,792
2023-05-06T14:50:18.563Z,802
2023-05-06T14:55:18.582Z,810
2023-05-06T15:00:15.693Z,820
2023-05-06T15:05:18.607Z,826
2023-05-06T15:10:15.556Z,835
2023-05-06T15:15:18.847Z,844
2023-05-06T15:20:15.621Z,851
2023-05-06T15:25:30.313Z,859
2023-05-06T15:30:18.688Z,864
2023-05-06T15:35:18.584Z,873
2023-05-06T15:40:15.737Z,873
2023-05-06T15:45:18.627Z,878
2023-05-06T15:50:25.233Z,887
2023-05-06T15:55:25.212Z,890
2023-05-06T16:00:18.631Z,894
2023-05-06T16:05:18.667Z,896
2023-05-06T16:10:18.603Z,902
2023-05-06T16:15:18.610Z,905
2023-05-06T16:20:18.683Z,906
2023-05-06T16:25:18.645Z,910
2023-05-06T16:30:18.680Z,914
2023-05-06T16:35:18.623Z,914
2023-05-06T16:40:18.617Z,916
2023-05-06T16:45:18.618Z,917
2023-05-06T16:50:15.836Z,916
2023-05-06T16:55:15.671Z,916
2023-05-06T17:00:18.740Z,917
2023-05-06T17:05:15.467Z,921
2023-05-06T17:10:18.687Z,929
2023-05-06T17:15:18.634Z,915
2023-05-06T17:20:18.665Z,911
2023-05-06T17:25:15.689Z,912
2023-05-06T17:30:18.668Z,909
2023-05-06T17:35:18.644Z,904
2023-05-06T17:40:15.758Z,900
2023-05-06T17:45:15.710Z,903
2023-05-06T17:50:18.686Z,904
2023-05-06T17:55:18.862Z,889
2023-05-06T18:00:18.720Z,885
2023-05-06T18:05:18.807Z,879
2023-05-06T18:10:19.265Z,881
2023-05-06T18:15:15.744Z,868
2023-05-06T18:20:18.660Z,860
2023-05-06T18:25:18.672Z,853
2023-05-06T18:30:18.751Z,845
2023-05-06T18:35:18.671Z,800
2023-05-06T18:40:18.741Z,827
2023-05-06T18:45:15.734Z,788
2023-05-06T18:50:19.622Z,249
2023-05-06T18:55:18.668Z,76
2023-05-06T19:00:18.770Z,76
2023-05-06T19:05:18.710Z,149
2023-05-06T19:10:18.755Z,115
2023-05-06T19:15:18.853Z,103
2023-05-06T19:20:15.793Z,480
2023-05-06T19:25:15.753Z,84
2023-05-06T19:30:18.727Z,244
2023-05-06T19:35:18.705Z,100
2023-05-06T19:40:15.640Z,216
2023-05-06T19:45:16.761Z,138
2023-05-06T19:50:15.795Z,312
2023-05-06T19:55:18.739Z,315
2023-05-06T20:00:15.819Z,438
2023-05-06T20:05:18.748Z,223
2023-05-06T20:10:18.798Z,186
2023-05-06T20:15:18.726Z,133
2023-05-06T20:20:18.738Z,83
2023-05-06T20:25:15.830Z,89
2023-05-06T20:30:15.813Z,113
2023-05-06T20:35:18.738Z,99
2023-05-06T20:40:18.820Z,87
2023-05-06T20:45:18.716Z,109
2023-05-06T20:50:18.785Z,106
2023-05-06T20:55:16.008Z,70
2023-05-06T21:00:15.809Z,61
2023-05-06T21:05:15.814Z,82
2023-05-06T21:10:18.833Z,97
2023-05-06T21:15:18.762Z,88
2023-05-06T21:20:18.767Z,54
2023-05-06T21:25:18.738Z,44
2023-05-06T21:30:18.743Z,39
2023-05-06T21:35:19.422Z,49
2023-05-06T21:40:15.600Z,55
2023-05-06T21:45:15.810Z,61
2023-05-06T21:50:15.859Z,58
2023-05-06T21:55:15.877Z,55
2023-05-06T22:00:18.819Z,50
2023-05-06T22:05:18.783Z,51
2023-05-06T22:10:18.833Z,70
2023-05-06T22:15:18.819Z,55
2023-05-06T22:20:18.813Z,45
2023-05-06T22:25:18.791Z,58
2023-05-06T22:30:18.753Z,31
2023-05-06T22:35:15.849Z,33
2023-05-06T22:40:18.833Z,30
2023-05-06T22:45:15.868Z,35
2023-05-06T22:50:15.818Z,42
2023-05-06T22:55:18.874Z,30
2023-05-06T23:00:15.685Z,20
2023-05-06T23:05:19.334Z,19
2023-05-06T23:10:15.846Z,18
2023-05-06T23:15:18.808Z,16
2023-05-06T23:20:18.868Z,14
2023-05-06T23:25:16.172Z,12
2023-05-06T23:30:18.848Z,10
2023-05-06T23:35:18.834Z,8
2023-05-06T23:40:15.842Z,6
2023-05-06T23:45:15.874Z,3
2023-05-06T23:50:15.868Z,0
2023-05-06T23:55:18.835Z,0
